Time;durP1;ratioP1;P1;durP2;ratioP2;P2;SDS_P1;SDS_P2;PMS_P1;PMS_P2;Temp;Humidity;BMP_temperature;BMP_pressure;BME280_temperature;BME280_humidity;BME280_pressure;Samples;Min_cycle;Max_cycle;Signal;HPM_P1;HPM_P2
2023/01/21 00:01:13;;;;;;;23.48;5.82;;;3.10;99.90;;;;;;5074089;28;20048;-74
2023/01/21 00:03:41;;;;;;;20.35;5.28;;;3.00;99.90;;;;;;5074059;28;20056;-74
2023/01/21 00:06:10;;;;;;;19.02;5.28;;;3.00;99.90;;;;;;5072817;28;20052;-75
2023/01/21 00:08:37;;;;;;;13.93;5.30;;;3.00;99.90;;;;;;5074075;28;20045;-76
2023/01/21 00:11:10;;;;;;;22.10;5.75;;;2.90;99.90;;;;;;5072989;28;20359;-74
2023/01/21 00:13:38;;;;;;;21.08;5.57;;;2.90;99.90;;;;;;5074892;28;20482;-74
2023/01/21 00:16:06;;;;;;;18.27;5.57;;;2.90;99.90;;;;;;5074830;28;20479;-75
2023/01/21 00:18:34;;;;;;;24.40;5.93;;;2.90;99.90;;;;;;5073976;28;20045;-75
2023/01/21 00:21:02;;;;;;;18.80;5.55;;;3.60;99.90;;;;;;5074571;28;20063;-73
2023/01/21 00:23:29;;;;;;;17.33;5.18;;;2.90;99.90;;;;;;5073841;28;20464;-73
2023/01/21 00:26:03;;;;;;;22.17;5.68;;;2.90;99.90;;;;;;5073590;28;20045;-74
2023/01/21 00:28:32;;;;;;;19.30;5.97;;;2.90;99.90;;;;;;5074009;28;20044;-75
2023/01/21 00:31:02;;;;;;;16.92;6.15;;;2.90;99.90;;;;;;5055961;28;20067;-76
2023/01/21 00:33:31;;;;;;;21.48;6.47;;;2.80;99.90;;;;;;5074471;28;20040;-73
2023/01/21 00:36:04;;;;;;;18.48;5.78;;;2.90;99.90;;;;;;5074751;28;20036;-74
2023/01/21 00:38:32;;;;;;;20.02;6.07;;;2.80;99.90;;;;;;5073565;28;20048;-73
2023/01/21 00:41:05;;;;;;;19.85;6.30;;;2.80;99.90;;;;;;5074593;28;20063;-74
2023/01/21 00:43:33;;;;;;;20.63;6.05;;;2.80;99.90;;;;;;5074649;28;20067;-74
2023/01/21 00:46:00;;;;;;;22.40;6.05;;;2.80;99.90;;;;;;5072829;28;20355;-75
2023/01/21 00:48:28;;;;;;;21.77;5.93;;;2.80;99.90;;;;;;5073493;28;20060;-74
2023/01/21 00:50:59;;;;;;;19.52;6.03;;;2.80;99.90;;;;;;5073144;28;20045;-75
2023/01/21 00:53:29;;;;;;;16.70;6.57;;;2.80;99.90;;;;;;5074355;28;20049;-75
2023/01/21 00:56:06;;;;;;;27.38;6.90;;;2.80;99.90;;;;;;5073859;28;20048;-72
2023/01/21 00:58:34;;;;;;;28.83;6.35;;;2.80;99.90;;;;;;5055951;28;20045;-73
2023/01/21 01:01:02;;;;;;;;;;;2.80;99.90;;;;;;5064149;28;20053;-74
2023/01/21 01:03:31;;;;;;;20.02;6.22;;;2.80;99.90;;;;;;5054279;28;19920;-75
2023/01/21 01:06:05;;;;;;;26.55;6.25;;;2.80;99.90;;;;;;5053104;28;20049;-73
2023/01/21 01:08:32;;;;;;;27.00;6.50;;;2.80;99.90;;;;;;5054645;28;20448;-74
2023/01/21 01:11:00;;;;;;;21.38;6.57;;;2.80;99.90;;;;;;5053152;28;20049;-74
2023/01/21 01:13:28;;;;;;;26.85;7.28;;;3.70;99.90;;;;;;5036866;28;20040;-73
2023/01/21 01:15:57;;;;;;;23.92;7.15;;;2.80;99.90;;;;;;5054152;28;20052;-74
2023/01/21 01:18:26;;;;;;;21.55;6.13;;;2.70;99.90;;;;;;5053448;28;20049;-74
2023/01/21 01:20:53;;;;;;;24.27;7.07;;;2.70;99.90;;;;;;5036747;28;20037;-73
2023/01/21 01:23:21;;;;;;;29.50;7.30;;;2.60;99.90;;;;;;5054282;28;20056;-76
2023/01/21 01:26:19;;;;;;;19.85;7.13;;;2.60;99.90;;;;;;5052876;28;20048;-74
2023/01/21 01:28:47;;;;;;;22.00;7.40;;;2.50;99.90;;;;;;5036227;28;20057;-73
2023/01/21 01:31:16;;;;;;;30.27;7.80;;;2.40;99.90;;;;;;5052834;28;20464;-75
2023/01/21 01:33:45;;;;;;;21.45;7.43;;;2.40;99.90;;;;;;5056315;28;20052;-76
2023/01/21 01:36:16;;;;;;;20.98;7.80;;;2.40;99.90;;;;;;5057538;28;20045;-74
2023/01/21 01:38:45;;;;;;;24.85;8.07;;;2.40;99.90;;;;;;5056470;28;20045;-75
2023/01/21 01:41:17;;;;;;;;;;;2.40;99.90;;;;;;5040404;28;20060;-74
2023/01/21 01:43:49;;;;;;;28.55;7.80;;;2.40;99.90;;;;;;5040184;28;20248;-74
2023/01/21 01:46:18;;;;;;;30.60;7.90;;;2.50;99.90;;;;;;5056303;28;20044;-75
2023/01/21 01:48:56;;;;;;;22.35;7.95;;;2.50;99.90;;;;;;5040110;28;20052;-73
2023/01/21 01:51:33;;;;;;;26.23;7.88;;;2.40;99.90;;;;;;5056227;28;20468;-73
2023/01/21 01:54:01;;;;;;;25.10;8.05;;;2.40;99.90;;;;;;5057378;28;20353;-74
2023/01/21 01:56:29;;;;;;;20.05;8.55;;;2.40;99.90;;;;;;5039973;28;20041;-75
2023/01/21 01:58:57;;;;;;;22.70;7.97;;;2.40;99.90;;;;;;5056184;28;20045;-75
2023/01/21 02:01:25;;;;;;;29.02;8.65;;;2.40;99.90;;;;;;5062916;28;20059;-75
2023/01/21 02:03:58;;;;;;;;;;;2.50;99.90;;;;;;5077962;28;20056;-75
2023/01/21 02:06:26;;;;;;;28.23;8.70;;;2.40;99.90;;;;;;5076123;28;19928;-72
2023/01/21 02:08:55;;;;;;;26.13;8.63;;;2.40;99.90;;;;;;5077425;28;20496;-74
2023/01/21 02:11:22;;;;;;;33.00;8.75;;;2.30;99.90;;;;;;5074873;28;20060;-72
2023/01/21 02:13:53;;;;;;;26.13;8.20;;;2.20;99.90;;;;;;5076785;28;20040;-75
2023/01/21 02:16:46;;;;;;;27.17;8.50;;;2.10;99.90;;;;;;5076934;28;20048;-74
2023/01/21 02:19:41;;;;;;;22.23;7.80;;;2.00;99.90;;;;;;5075728;28;20459;-73
2023/01/21 02:22:14;;;;;;;25.50;8.15;;;1.80;99.90;;;;;;5069764;28;20047;-74
2023/01/21 02:25:00;;;;;;;25.80;9.20;;;1.70;99.90;;;;;;5075433;28;20048;-75
2023/01/21 02:27:45;;;;;;;25.65;8.40;;;1.60;99.90;;;;;;5076962;28;20044;-74
2023/01/21 02:30:40;;;;;;;28.65;8.73;;;1.40;99.90;;;;;;5075955;28;20049;-73
2023/01/21 02:33:24;;;;;;;23.92;8.15;;;1.30;99.90;;;;;;5075364;28;20048;-74
2023/01/21 02:36:33;;;;;;;29.98;8.50;;;1.20;99.90;;;;;;5075739;28;20059;-76
2023/01/21 02:39:21;;;;;;;29.98;9.45;;;1.00;99.90;;;;;;4978266;28;20054;-73
2023/01/21 02:42:01;;;;;;;30.05;9.38;;;0.90;99.90;;;;;;5072551;28;20048;-75
2023/01/21 02:44:39;;;;;;;31.33;10.10;;;0.70;99.90;;;;;;5073892;28;20367;-73
2023/01/21 02:47:06;;;;;;;;;;;0.60;99.90;;;;;;5076843;28;20044;-72
2023/01/21 02:49:39;;;;;;;24.58;8.18;;;0.50;99.90;;;;;;5076652;28;19920;-75
2023/01/21 02:52:07;;;;;;;28.67;9.48;;;0.40;99.90;;;;;;5074532;28;20482;-75
2023/01/21 02:54:37;;;;;;;30.65;9.52;;;0.30;99.90;;;;;;5076257;28;20053;-74
2023/01/21 02:57:30;;;;;;;29.60;9.18;;;0.20;99.90;;;;;;5076289;28;20056;-74
2023/01/21 03:00:00;;;;;;;23.42;9.30;;;0.10;99.90;;;;;;5074202;28;20044;-75
2023/01/21 03:03:08;;;;;;;29.23;9.55;;;0.00;99.90;;;;;;5056321;28;20052;-73
2023/01/21 03:06:02;;;;;;;34.60;10.55;;;-0.10;99.90;;;;;;5054881;28;20057;-75
2023/01/21 03:08:52;;;;;;;33.17;10.63;;;-0.20;99.90;;;;;;5056283;28;20415;-73
2023/01/21 03:11:21;;;;;;;38.10;11.45;;;-0.20;99.90;;;;;;5054682;28;20471;-75
2023/01/21 03:16:56;;;;;;;42.30;10.88;;;-0.30;99.90;;;;;;5055692;28;20055;-73
2023/01/21 03:19:35;;;;;;;39.72;11.25;;;-0.30;99.90;;;;;;5054792;28;20052;-75
2023/01/21 03:22:11;;;;;;;29.58;10.82;;;-0.40;99.90;;;;;;5055712;28;20479;-74
2023/01/21 03:24:41;;;;;;;29.45;10.55;;;-0.40;99.90;;;;;;5054331;28;20059;-73
2023/01/21 03:27:12;;;;;;;35.38;10.23;;;-0.40;99.90;;;;;;5038674;28;20052;-75
2023/01/21 03:29:41;;;;;;;31.98;10.63;;;-0.40;99.90;;;;;;5038603;28;20468;-74
2023/01/21 03:32:12;;;;;;;34.45;9.95;;;-0.50;99.90;;;;;;5054368;28;20372;-75
2023/01/21 03:34:44;;;;;;;42.40;10.93;;;-0.50;99.90;;;;;;5055245;28;20048;-75
2023/01/21 03:37:11;;;;;;;39.50;11.73;;;-0.60;99.90;;;;;;5038255;28;20361;-73
2023/01/21 03:40:22;;;;;;;38.80;11.50;;;-0.60;99.90;;;;;;5054155;28;20045;-74
2023/01/21 03:42:51;;;;;;;38.78;10.98;;;-0.70;99.90;;;;;;4955738;29;20043;-73
2023/01/21 03:45:30;;;;;;;34.95;12.13;;;-0.70;99.90;;;;;;5041321;28;20398;-75
2023/01/21 03:48:04;;;;;;;37.67;11.25;;;-0.80;99.90;;;;;;5037708;28;20063;-76
2023/01/21 03:50:38;;;;;;;39.92;11.85;;;-0.80;99.90;;;;;;5055597;28;20468;-76
2023/01/21 03:53:06;;;;;;;34.55;11.57;;;-0.20;99.90;;;;;;5053895;28;20060;-75
2023/01/21 03:55:35;;;;;;;40.55;11.52;;;-0.80;99.90;;;;;;5054657;28;20052;-74
2023/01/21 03:58:02;;;;;;;31.98;10.80;;;-0.90;99.90;;;;;;5053284;28;20060;-72
2023/01/21 04:00:30;;;;;;;35.28;12.10;;;-0.90;99.90;;;;;;5054670;28;20048;-75
2023/01/21 04:02:58;;;;;;;36.83;11.45;;;-0.90;99.90;;;;;;5037689;28;20045;-74
2023/01/21 04:05:25;;;;;;;35.72;11.45;;;-0.90;99.90;;;;;;5053678;28;20502;-76
2023/01/21 04:07:53;;;;;;;36.05;11.77;;;-0.90;99.90;;;;;;5037711;28;20040;-76
2023/01/21 04:10:20;;;;;;;30.45;11.57;;;-1.00;99.90;;;;;;5037574;28;20494;-75
2023/01/21 04:12:48;;;;;;;42.38;11.98;;;-1.00;99.90;;;;;;5036129;28;20048;-74
2023/01/21 04:15:15;;;;;;;36.72;11.68;;;-1.00;99.90;;;;;;5037494;28;20072;-72
2023/01/21 04:17:43;;;;;;;36.75;12.23;;;-1.00;99.90;;;;;;5036552;28;20041;-74
2023/01/21 04:20:11;;;;;;;37.88;12.52;;;-1.00;99.90;;;;;;5020919;28;20041;-75
2023/01/21 04:22:38;;;;;;;;;;;-1.00;99.90;;;;;;5037729;28;20045;-73
2023/01/21 04:25:06;;;;;;;36.75;11.50;;;-0.60;99.90;;;;;;5053476;28;19925;-76
2023/01/21 04:27:33;;;;;;;40.80;11.30;;;-1.10;99.90;;;;;;5020854;28;20045;-75
2023/01/21 04:30:01;;;;;;;45.75;12.88;;;-1.10;99.90;;;;;;5054861;28;20367;-76
2023/01/21 04:32:28;;;;;;;48.75;13.02;;;-1.10;99.90;;;;;;5053794;28;20383;-74
2023/01/21 04:34:56;;;;;;;38.97;12.45;;;-1.10;99.90;;;;;;5054326;28;20048;-76
2023/01/21 04:37:24;;;;;;;37.42;12.70;;;-1.10;99.90;;;;;;5054659;28;20056;-75
2023/01/21 04:39:51;;;;;;;34.35;11.63;;;-1.10;99.90;;;;;;5036799;28;20060;-74
2023/01/21 04:42:18;;;;;;;35.13;12.18;;;-1.10;99.90;;;;;;5054898;28;20048;-75
2023/01/21 04:44:46;;;;;;;38.70;12.60;;;-1.10;99.90;;;;;;5053372;28;20056;-74
2023/01/21 04:47:13;;;;;;;35.90;12.48;;;-1.10;99.90;;;;;;5037447;28;20057;-75
2023/01/21 04:49:41;;;;;;;41.92;12.57;;;-1.10;99.90;;;;;;5054522;28;20045;-74
2023/01/21 04:52:08;;;;;;;39.92;12.55;;;-1.20;99.90;;;;;;5035879;28;20056;-74
2023/01/21 04:54:36;;;;;;;33.75;12.45;;;-1.20;99.90;;;;;;5054208;28;20044;-75
2023/01/21 04:57:03;;;;;;;35.13;11.80;;;-1.20;99.90;;;;;;5054910;28;20045;-73
2023/01/21 04:59:31;;;;;;;41.35;12.25;;;-1.20;99.90;;;;;;5053220;28;20452;-73
2023/01/21 05:01:58;;;;;;;32.17;12.32;;;-1.30;99.90;;;;;;5069422;28;20048;-75
2023/01/21 05:04:26;;;;;;;33.03;12.60;;;-0.70;99.90;;;;;;5055867;28;20059;-72
2023/01/21 05:06:54;;;;;;;37.80;12.25;;;-1.30;99.90;;;;;;5074462;28;20451;-75
2023/01/21 05:09:21;;;;;;;45.67;12.82;;;-1.30;99.90;;;;;;5076954;28;20048;-76
2023/01/21 05:11:49;;;;;;;41.05;12.98;;;-1.30;99.90;;;;;;5077012;28;20471;-74
2023/01/21 05:14:16;;;;;;;42.47;13.40;;;-1.20;99.90;;;;;;5078070;28;20052;-73
2023/01/21 05:16:44;;;;;;;31.05;12.27;;;-1.30;99.90;;;;;;5078180;28;20041;-73
2023/01/21 05:19:11;;;;;;;44.10;12.23;;;-1.30;99.90;;;;;;5076855;28;20044;-74
2023/01/21 05:21:39;;;;;;;35.50;12.30;;;-1.30;99.90;;;;;;5078662;28;20044;-75
2023/01/21 05:24:06;;;;;;;38.90;12.82;;;-1.30;99.90;;;;;;5076713;28;20040;-73
2023/01/21 05:26:34;;;;;;;34.80;12.90;;;-1.30;99.90;;;;;;5077889;28;20052;-73
2023/01/21 05:29:02;;;;;;;;;;;-1.40;99.90;;;;;;5077720;28;20492;-74
2023/01/21 05:31:29;;;;;;;42.22;13.07;;;-1.40;99.90;;;;;;5076878;28;20247;-74
2023/01/21 05:33:57;;;;;;;45.47;13.40;;;-1.40;99.90;;;;;;5077603;28;20133;-72
2023/01/21 05:36:25;;;;;;;45.15;13.00;;;-1.40;99.90;;;;;;5076962;28;20045;-76
2023/01/21 05:38:53;;;;;;;48.28;14.55;;;-1.40;99.90;;;;;;5076907;28;20041;-74
2023/01/21 05:41:20;;;;;;;45.42;14.85;;;-1.40;99.90;;;;;;5077033;28;20052;-75
2023/01/21 05:43:48;;;;;;;52.13;14.93;;;-1.30;99.90;;;;;;5076526;28;20053;-75
2023/01/21 05:46:16;;;;;;;55.75;14.57;;;-1.30;99.90;;;;;;5075547;28;20048;-74
2023/01/21 05:48:44;;;;;;;43.22;14.93;;;-1.30;99.90;;;;;;5076743;28;20371;-73
2023/01/21 05:51:12;;;;;;;50.70;15.27;;;-1.20;99.90;;;;;;5076664;28;20052;-73
2023/01/21 05:53:39;;;;;;;50.38;15.27;;;-1.20;99.90;;;;;;5077377;28;20060;-73
2023/01/21 05:56:07;;;;;;;44.35;14.82;;;-1.10;99.90;;;;;;5077377;28;20044;-73
2023/01/21 05:58:35;;;;;;;45.47;15.00;;;-1.00;99.90;;;;;;5075396;28;20455;-74
2023/01/21 06:01:03;;;;;;;42.35;14.35;;;-0.90;99.90;;;;;;5066635;28;20041;-73
2023/01/21 06:03:30;;;;;;;41.25;14.82;;;-0.90;99.90;;;;;;5057106;28;20044;-73
2023/01/21 06:05:58;;;;;;;45.63;15.07;;;-0.40;99.90;;;;;;5022318;28;20387;-74
2023/01/21 06:08:25;;;;;;;41.22;14.65;;;-0.80;99.90;;;;;;5057043;28;20061;-74
2023/01/21 06:10:55;;;;;;;45.17;15.23;;;-0.80;99.90;;;;;;5038637;28;20041;-75
2023/01/21 06:13:22;;;;;;;47.85;14.80;;;-0.70;99.90;;;;;;5039307;28;20391;-75
2023/01/21 06:15:54;;;;;;;40.55;14.57;;;-0.70;99.90;;;;;;5057392;28;20044;-75
2023/01/21 06:18:22;;;;;;;46.42;15.15;;;-0.70;99.90;;;;;;5038700;28;20056;-73
2023/01/21 06:20:50;;;;;;;43.53;15.43;;;-0.60;99.90;;;;;;5055928;28;20490;-74
2023/01/21 06:23:17;;;;;;;42.53;15.27;;;-0.60;99.90;;;;;;5056852;28;20051;-73
2023/01/21 06:25:45;;;;;;;51.53;16.00;;;-0.60;99.90;;;;;;5055713;28;20049;-74
2023/01/21 06:28:12;;;;;;;45.47;15.05;;;-0.50;99.90;;;;;;5056670;28;20056;-72
2023/01/21 06:30:40;;;;;;;42.28;14.60;;;-0.50;99.90;;;;;;5056669;28;20041;-76
2023/01/21 06:33:08;;;;;;;45.65;14.73;;;-0.50;99.90;;;;;;5055596;28;20380;-76
2023/01/21 06:35:36;;;;;;;;;;;-0.50;99.90;;;;;;5039661;28;20048;-75
2023/01/21 06:38:03;;;;;;;36.83;15.27;;;-0.40;99.90;;;;;;5038363;28;19920;-74
2023/01/21 06:40:31;;;;;;;40.67;15.05;;;-0.40;99.90;;;;;;5056325;28;20448;-76
2023/01/21 06:42:58;;;;;;;37.80;15.00;;;-0.40;99.90;;;;;;5056362;28;20048;-76
2023/01/21 06:45:26;;;;;;;41.67;15.13;;;0.20;99.90;;;;;;5038266;28;20064;-74
2023/01/21 06:47:53;;;;;;;40.03;14.75;;;-0.40;99.90;;;;;;5039031;28;20464;-73
2023/01/21 06:50:21;;;;;;;41.38;15.60;;;-0.40;99.90;;;;;;5039004;28;20099;-74
2023/01/21 06:52:48;;;;;;;45.63;15.35;;;-0.40;99.90;;;;;;5021572;28;20456;-74
2023/01/21 06:55:16;;;;;;;40.35;15.75;;;-0.50;99.90;;;;;;5056196;28;20048;-73
2023/01/21 06:57:43;;;;;;;45.92;15.45;;;-0.50;99.90;;;;;;5055670;28;20119;-74
2023/01/21 07:00:12;;;;;;;43.33;15.35;;;-0.40;99.90;;;;;;5022291;28;20052;-73
2023/01/21 07:02:39;;;;;;;36.17;14.88;;;-0.50;99.90;;;;;;5055359;28;20049;-74
2023/01/21 07:05:07;;;;;;;38.25;13.70;;;-0.50;99.90;;;;;;5054979;28;20041;-74
2023/01/21 07:07:35;;;;;;;40.42;15.13;;;-0.50;99.90;;;;;;5038708;28;20049;-76
2023/01/21 07:10:03;;;;;;;46.13;14.38;;;-0.50;99.90;;;;;;5055971;28;20061;-76
2023/01/21 07:12:30;;;;;;;37.75;14.80;;;-0.60;99.90;;;;;;5055110;28;20033;-73
2023/01/21 07:14:58;;;;;;;40.15;14.75;;;-0.60;99.90;;;;;;5038602;28;20464;-74
2023/01/21 07:17:25;;;;;;;42.58;16.02;;;-0.70;99.90;;;;;;5037666;28;20045;-74
2023/01/21 07:19:53;;;;;;;53.38;17.38;;;-0.70;99.90;;;;;;5055641;28;20049;-74
2023/01/21 07:22:20;;;;;;;38.42;14.48;;;-0.80;99.90;;;;;;5055536;28;20041;-75
2023/01/21 07:24:48;;;;;;;44.38;14.75;;;-0.80;99.90;;;;;;5037031;28;20056;-74
2023/01/21 07:27:15;;;;;;;52.10;16.05;;;-0.80;99.90;;;;;;5055920;28;20049;-73
2023/01/21 07:29:43;;;;;;;44.08;14.63;;;-0.90;99.90;;;;;;5055503;28;20037;-73
2023/01/21 07:32:10;;;;;;;40.13;15.10;;;-1.00;99.90;;;;;;5054150;28;20349;-75
2023/01/21 07:34:38;;;;;;;44.28;15.25;;;-1.00;99.90;;;;;;5038396;28;20076;-73
2023/01/21 07:37:05;;;;;;;46.13;16.20;;;-1.10;99.90;;;;;;5055904;28;20053;-73
2023/01/21 07:39:32;;;;;;;43.15;15.82;;;-1.10;99.90;;;;;;5054308;28;20334;-76
2023/01/21 07:42:00;;;;;;;48.88;16.80;;;-1.20;99.90;;;;;;5055248;28;20052;-76
2023/01/21 07:44:27;;;;;;;41.35;16.15;;;-1.20;99.90;;;;;;5054216;28;20059;-76
2023/01/21 07:46:56;;;;;;;47.22;16.23;;;-1.20;99.90;;;;;;5055373;28;20045;-74
2023/01/21 07:49:23;;;;;;;44.75;16.20;;;-1.30;99.90;;;;;;5054865;28;20349;-75
2023/01/21 07:51:56;;;;;;;45.78;16.50;;;-1.30;99.90;;;;;;5054220;28;20060;-74
2023/01/21 07:54:24;;;;;;;52.60;18.52;;;-1.30;99.90;;;;;;5013598;28;20045;-74
2023/01/21 07:56:51;;;;;;;60.28;19.73;;;-1.40;99.90;;;;;;4998407;28;20053;-75
2023/01/21 07:59:20;;;;;;;69.60;19.10;;;-0.50;99.90;;;;;;5014121;28;20045;-76
2023/01/21 08:01:47;;;;;;;59.45;18.55;;;-1.40;99.90;;;;;;5027234;28;20045;-76
2023/01/21 08:04:15;;;;;;;54.45;19.25;;;-1.40;99.90;;;;;;5033962;28;20052;-74
2023/01/21 08:06:43;;;;;;;59.20;18.20;;;-1.40;99.90;;;;;;5034427;28;20495;-75
2023/01/21 08:09:10;;;;;;;55.90;18.65;;;-1.40;99.90;;;;;;5035566;28;20045;-74
2023/01/21 08:11:38;;;;;;;59.00;19.83;;;-1.40;99.90;;;;;;5016931;28;20424;-75
2023/01/21 08:14:06;;;;;;;58.88;19.80;;;-1.40;99.90;;;;;;5035182;28;20049;-74
2023/01/21 08:16:33;;;;;;;59.60;18.85;;;-1.40;99.90;;;;;;5034886;28;20053;-76
2023/01/21 08:19:01;;;;;;;59.83;19.63;;;-1.40;99.90;;;;;;5033376;28;20461;-75
2023/01/21 08:21:28;;;;;;;62.42;19.23;;;-1.40;99.90;;;;;;5033862;28;20167;-73
2023/01/21 08:23:56;;;;;;;50.13;18.50;;;-0.80;99.90;;;;;;5034525;28;20042;-76
2023/01/21 08:26:24;;;;;;;;;;;-1.40;99.90;;;;;;5016606;28;20049;-75
2023/01/21 08:28:52;;;;;;;;;;;-1.40;99.90;;;;;;5034772;28;19921;-77
2023/01/21 08:31:19;;;;;;;;;;;-1.40;99.90;;;;;;5034070;28;19928;-76
2023/01/21 08:33:47;;;;;;;51.53;16.80;;;-1.40;99.90;;;;;;5033391;28;19932;-76
2023/01/21 08:36:15;;;;;;;55.20;17.60;;;-1.40;99.90;;;;;;5034168;28;20033;-77
2023/01/21 08:38:43;;;;;;;59.70;19.73;;;-1.30;99.90;;;;;;5033315;28;20045;-75
2023/01/21 08:41:10;;;;;;;64.65;19.48;;;-1.30;99.90;;;;;;5034228;28;20049;-75
2023/01/21 08:43:39;;;;;;;61.50;19.00;;;-1.30;99.90;;;;;;5036714;28;20045;-77
2023/01/21 08:46:06;;;;;;;58.47;20.42;;;-1.30;99.90;;;;;;5020152;28;20046;-74
2023/01/21 08:48:36;;;;;;;63.22;19.55;;;-1.30;99.90;;;;;;5038136;28;20048;-75
2023/01/21 08:51:04;;;;;;;61.92;20.13;;;-1.30;99.90;;;;;;5037192;28;20476;-76
2023/01/21 08:53:32;;;;;;;59.55;19.83;;;-1.30;99.90;;;;;;5038876;28;20045;-76
2023/01/21 08:56:04;;;;;;;73.70;24.20;;;-1.30;99.90;;;;;;5038492;28;20041;-78
2023/01/21 08:58:32;;;;;;;82.03;22.92;;;-1.30;99.90;;;;;;5037386;28;20049;-77
2023/01/21 09:01:06;;;;;;;73.80;22.60;;;-1.40;99.90;;;;;;5021190;28;20058;-75
2023/01/21 09:03:34;;;;;;;68.53;22.35;;;-1.30;99.90;;;;;;5038300;28;20068;-76
2023/01/21 09:06:03;;;;;;;74.78;22.90;;;-0.40;99.90;;;;;;5037026;28;20046;-77
2023/01/21 09:08:31;;;;;;;66.10;21.75;;;-1.20;99.90;;;;;;5037454;28;20049;-77
2023/01/21 09:11:02;;;;;;;;;;;-1.10;99.90;;;;;;5036704;28;20046;-76
2023/01/21 09:13:39;;;;;;;57.78;19.40;;;-0.60;99.90;;;;;;5037319;28;19932;-75
2023/01/21 09:16:08;;;;;;;62.40;21.42;;;-1.10;99.90;;;;;;5038384;28;20049;-79
2023/01/21 09:18:36;;;;;;;57.47;19.98;;;-1.10;99.90;;;;;;5037132;28;20052;-78
2023/01/21 09:21:05;;;;;;;60.28;21.17;;;-1.10;99.90;;;;;;5037775;28;20049;-75
2023/01/21 09:23:33;;;;;;;69.07;21.27;;;-1.10;99.90;;;;;;5038345;28;20049;-75
2023/01/21 09:26:02;;;;;;;57.72;21.25;;;-1.20;99.90;;;;;;5036842;28;20046;-76
2023/01/21 09:28:32;;;;;;;65.50;22.83;;;-1.10;99.90;;;;;;5036983;28;20045;-79
2023/01/21 09:31:03;;;;;;;74.07;24.58;;;-1.10;99.90;;;;;;5036581;28;20053;-76
2023/01/21 09:33:33;;;;;;;71.35;24.30;;;-2.30;99.90;;;;;;5020454;28;20045;-80
2023/01/21 09:36:21;;;;;;;;;;;;;;;;;;;;;
2023/01/21 09:38:59;;;;;;;75.93;25.02;;;0.80;99.90;;;;;;5035925;28;20041;-84
2023/01/21 09:42:05;;;;;;;;;;;;;;;;;;;;;
2023/01/21 09:44:55;;;;;;;89.22;26.20;;;0.20;99.90;;;;;;5036154;28;20046;-84
2023/01/21 09:47:55;;;;;;;76.47;25.48;;;0.60;99.90;;;;;;5036614;28;20049;-85
2023/01/21 09:50:36;;;;;;;85.47;26.90;;;1.30;99.90;;;;;;5037280;28;20065;-85
2023/01/21 09:54:32;;;;;;;89.20;28.52;;;-2.10;99.90;;;;;;4996833;28;20056;-83
2023/01/21 09:58:04;;;;;;;96.07;29.73;;;-0.90;99.90;;;;;;5011917;28;20049;-84
2023/01/21 10:01:34;;;;;;;91.43;29.27;;;-0.70;99.90;;;;;;5006869;28;20415;-84
2023/01/21 10:04:14;;;;;;;98.78;31.60;;;-0.40;99.90;;;;;;5035730;28;20044;-85
2023/01/21 10:06:53;;;;;;;94.60;30.02;;;-0.40;99.90;;;;;;5037099;28;20049;-87
2023/01/21 10:18:57;;;;;;;100.60;31.00;;;-0.40;99.90;;;;;;4950876;28;20362;-84
2023/01/21 10:22:20;;;;;;;99.95;28.70;;;2.10;99.90;;;;;;5009330;28;20053;-82
2023/01/21 10:25:25;;;;;;;108.55;31.88;;;-0.10;99.90;;;;;;5056010;28;20049;-80
2023/01/21 10:28:33;;;;;;;104.75;30.15;;;-0.10;99.90;;;;;;5055849;28;20049;-83
2023/01/21 10:31:27;;;;;;;100.78;31.25;;;-0.90;99.90;;;;;;5038535;28;20388;-79
2023/01/21 10:33:55;;;;;;;109.53;32.25;;;1.80;99.90;;;;;;5055683;28;20045;-80
2023/01/21 10:36:38;;;;;;;110.95;31.83;;;2.00;99.90;;;;;;5052447;28;20056;-79
2023/01/21 10:39:18;;;;;;;110.68;31.45;;;0.10;99.90;;;;;;5054383;28;20053;-79
2023/01/21 10:42:27;;;;;;;113.57;32.40;;;0.00;99.90;;;;;;5060545;28;20367;-86
2023/01/21 10:50:56;;;;;;;103.22;29.88;;;-0.60;99.90;;;;;;5034675;28;20637;-80
2023/01/21 10:54:21;;;;;;;108.72;33.20;;;0.60;99.90;;;;;;5004415;28;20064;-75
2023/01/21 10:56:58;;;;;;;120.45;35.88;;;0.50;99.90;;;;;;4967164;28;20054;-75
2023/01/21 10:59:29;;;;;;;130.05;38.63;;;0.50;99.90;;;;;;5033339;28;20041;-75
2023/01/21 11:02:16;;;;;;;112.45;38.97;;;0.70;99.90;;;;;;5058006;28;20056;-75
2023/01/21 11:04:44;;;;;;;112.80;39.42;;;0.80;99.90;;;;;;5021281;28;20048;-76
2023/01/21 11:07:18;;;;;;;110.32;37.67;;;1.50;99.90;;;;;;5055813;28;20048;-76
2023/01/21 11:09:47;;;;;;;103.40;37.38;;;0.90;99.90;;;;;;5056273;28;20041;-75
2023/01/21 11:12:22;;;;;;;96.25;34.83;;;2.80;99.90;;;;;;5054706;28;20051;-77
2023/01/21 11:14:59;;;;;;;85.50;31.23;;;1.00;99.90;;;;;;5055764;28;20056;-74
2023/01/21 11:17:36;;;;;;;97.85;32.53;;;1.00;99.90;;;;;;5054637;28;20041;-76
2023/01/21 11:20:26;;;;;;;84.93;31.67;;;1.10;99.90;;;;;;5056099;28;20040;-75
2023/01/21 11:22:54;;;;;;;88.75;30.70;;;1.10;99.90;;;;;;5039361;28;20048;-74
2023/01/21 11:25:34;;;;;;;80.55;29.25;;;1.10;99.90;;;;;;5037272;28;20056;-75
2023/01/21 11:28:03;;;;;;;76.63;27.02;;;1.20;99.90;;;;;;5038369;28;20383;-78
2023/01/21 11:30:37;;;;;;;73.00;25.45;;;1.20;99.90;;;;;;5055505;28;20044;-77
2023/01/21 11:33:26;;;;;;;75.63;26.15;;;1.30;99.90;;;;;;5041311;28;20052;-76
2023/01/21 11:35:54;;;;;;;66.50;24.98;;;1.30;99.90;;;;;;5055502;28;20044;-75
2023/01/21 11:38:28;;;;;;;62.10;24.33;;;1.40;99.90;;;;;;5054151;28;20048;-74
2023/01/21 11:41:08;;;;;;;70.72;24.27;;;1.40;99.90;;;;;;5038323;28;20052;-73
2023/01/21 11:43:51;;;;;;;65.60;24.17;;;1.50;99.90;;;;;;5055428;28;20041;-76
2023/01/21 11:46:21;;;;;;;56.58;22.30;;;1.50;99.90;;;;;;5054559;28;20368;-73
2023/01/21 11:48:52;;;;;;;57.85;22.77;;;1.60;99.90;;;;;;5021598;28;20046;-74
2023/01/21 11:51:19;;;;;;;52.35;23.15;;;1.60;99.90;;;;;;5035023;28;20588;-77
2023/01/21 11:53:47;;;;;;;56.83;21.90;;;1.60;99.90;;;;;;5035812;28;20376;-75
2023/01/21 11:56:15;;;;;;;62.00;23.33;;;1.60;99.90;;;;;;5035170;28;20053;-74
2023/01/21 11:58:46;;;;;;;58.33;22.38;;;1.60;99.90;;;;;;5015779;28;20048;-73
2023/01/21 12:01:20;;;;;;;67.07;24.02;;;1.70;99.90;;;;;;5054971;28;20059;-75
2023/01/21 12:03:52;;;;;;;58.08;22.88;;;1.70;99.90;;;;;;5037957;28;20045;-77
2023/01/21 12:06:24;;;;;;;57.22;20.88;;;1.70;99.90;;;;;;5020237;28;20464;-75
2023/01/21 12:08:55;;;;;;;54.97;21.10;;;1.70;99.90;;;;;;5055009;28;20048;-75
2023/01/21 12:11:25;;;;;;;52.15;21.52;;;1.70;99.90;;;;;;5053866;28;20052;-77
2023/01/21 12:14:16;;;;;;;55.28;21.55;;;1.80;99.90;;;;;;5054664;28;20055;-77
2023/01/21 12:17:01;;;;;;;53.95;21.35;;;1.80;99.90;;;;;;5054721;28;20071;-74
2023/01/21 12:19:43;;;;;;;53.67;21.17;;;1.80;99.90;;;;;;5036019;28;20060;-74
2023/01/21 12:22:22;;;;;;;51.55;21.60;;;1.90;99.90;;;;;;5037579;28;20486;-75
2023/01/21 12:25:09;;;;;;;57.95;21.50;;;1.90;99.90;;;;;;5053694;28;20368;-75
2023/01/21 12:28:05;;;;;;;57.30;22.40;;;2.00;99.90;;;;;;5021069;28;20064;-75
2023/01/21 12:30:38;;;;;;;52.13;21.10;;;2.00;99.90;;;;;;5055087;28;20444;-76
2023/01/21 12:33:19;;;;;;;64.57;22.50;;;2.00;99.90;;;;;;4997628;28;20346;-75
2023/01/21 12:35:56;;;;;;;52.00;21.10;;;2.10;99.90;;;;;;5017571;28;20064;-75
2023/01/21 12:38:31;;;;;;;49.25;19.73;;;2.10;99.90;;;;;;5009040;28;20038;-74
2023/01/21 12:41:06;;;;;;;49.95;19.98;;;2.20;99.90;;;;;;4998400;28;20481;-75
2023/01/21 12:43:41;;;;;;;46.13;19.85;;;2.20;99.90;;;;;;5015428;28;20053;-76
2023/01/21 12:46:19;;;;;;;49.50;18.50;;;2.30;99.90;;;;;;5013729;28;20038;-76
2023/01/21 12:48:50;;;;;;;48.15;19.17;;;2.30;99.90;;;;;;5014706;28;20073;-74
2023/01/21 12:51:41;;;;;;;40.33;18.10;;;2.30;99.90;;;;;;4996738;28;20046;-75
2023/01/21 12:54:47;;;;;;;49.85;20.45;;;2.40;99.90;;;;;;5015142;28;20057;-75
2023/01/21 12:57:35;;;;;;;41.00;18.30;;;2.40;99.90;;;;;;5012059;28;20477;-75
2023/01/21 13:00:09;;;;;;;48.85;18.83;;;2.50;99.90;;;;;;5014741;28;20053;-75
2023/01/21 13:03:05;;;;;;;46.55;17.67;;;2.60;99.90;;;;;;4997877;28;20046;-74
2023/01/21 13:06:04;;;;;;;47.95;18.10;;;2.60;99.90;;;;;;5013554;28;20053;-75
2023/01/21 13:08:43;;;;;;;48.55;17.52;;;2.70;99.90;;;;;;5014816;28;20054;-74
2023/01/21 13:11:16;;;;;;;38.78;16.90;;;2.80;99.90;;;;;;4996769;28;20068;-75
2023/01/21 13:13:54;;;;;;;43.78;17.00;;;2.80;99.90;;;;;;4997615;28;20050;-76
2023/01/21 13:16:25;;;;;;;43.75;16.48;;;2.90;99.90;;;;;;5014484;28;20125;-75
2023/01/21 13:18:54;;;;;;;37.00;15.73;;;3.00;99.90;;;;;;4996427;28;20045;-76
2023/01/21 13:22:02;;;;;;;39.97;16.27;;;3.10;99.90;;;;;;5014902;28;20064;-76
2023/01/21 13:25:00;;;;;;;42.10;16.88;;;4.00;99.90;;;;;;4937596;29;20063;-76
2023/01/21 13:27:42;;;;;;;41.72;16.05;;;3.20;99.90;;;;;;5014056;28;20054;-74
2023/01/21 13:30:33;;;;;;;44.25;17.33;;;3.20;99.90;;;;;;5000861;28;20050;-77